createdAt,value
2022-09-13T00:01:05.998Z,21.50
2022-09-13T00:03:33.956Z,21.60
2022-09-13T00:06:19.185Z,21.60
2022-09-13T00:08:47.224Z,21.70
2022-09-13T00:11:26.309Z,21.50
2022-09-13T00:13:54.924Z,21.70
2022-09-13T00:16:25.248Z,21.70
2022-09-13T00:18:54.163Z,21.60
2022-09-13T00:21:24.144Z,21.60
2022-09-13T00:23:54.290Z,21.70
2022-09-13T00:26:25.764Z,21.70
2022-09-13T00:28:56.415Z,21.50
2022-09-13T00:31:27.798Z,21.60
2022-09-13T00:33:58.676Z,21.50
2022-09-13T00:36:26.521Z,21.50
2022-09-13T00:38:54.209Z,21.50
2022-09-13T00:41:22.565Z,21.40
2022-09-13T00:43:53.457Z,21.30
2022-09-13T00:46:48.643Z,21.20
2022-09-13T00:49:39.063Z,21.20
2022-09-13T00:52:13.450Z,21.30
2022-09-13T00:54:46.225Z,21.40
2022-09-13T00:57:15.212Z,21.40
2022-09-13T00:59:51.993Z,21.30
2022-09-13T01:02:20.695Z,21.30
2022-09-13T01:04:48.969Z,21.30
2022-09-13T01:07:18.727Z,21.20
2022-09-13T01:09:50.494Z,21.30
2022-09-13T01:12:32.223Z,21.20
2022-09-13T01:15:01.818Z,21.10
2022-09-13T01:17:31.974Z,21.10
2022-09-13T01:20:01.665Z,21.10
2022-09-13T01:22:47.560Z,21.10
2022-09-13T01:25:28.472Z,21.00
2022-09-13T01:28:10.722Z,20.90
2022-09-13T01:30:43.138Z,20.90
2022-09-13T01:33:13.899Z,21.00
2022-09-13T01:35:56.706Z,20.90
2022-09-13T01:39:03.040Z,21.00
2022-09-13T01:42:07.665Z,21.00
2022-09-13T01:44:57.185Z,21.10
2022-09-13T01:47:33.131Z,20.90
2022-09-13T01:50:17.146Z,20.90
2022-09-13T01:52:57.276Z,20.90
2022-09-13T01:55:44.025Z,20.80
2022-09-13T01:58:29.954Z,20.90
2022-09-13T02:01:11.361Z,20.80
2022-09-13T02:03:53.912Z,20.90
2022-09-13T02:06:30.634Z,20.90
2022-09-13T02:09:03.561Z,20.80
2022-09-13T02:11:33.393Z,20.70
2022-09-13T02:14:41.455Z,20.60
2022-09-13T02:17:23.815Z,20.50
2022-09-13T02:20:01.393Z,20.50
2022-09-13T02:22:35.357Z,20.60
2022-09-13T02:25:10.082Z,20.50
2022-09-13T02:27:40.417Z,20.50
2022-09-13T02:30:13.150Z,20.50
2022-09-13T02:32:51.164Z,20.50
2022-09-13T02:35:25.183Z,20.50
2022-09-13T02:37:57.708Z,20.40
2022-09-13T02:40:30.645Z,20.40
2022-09-13T02:43:06.576Z,20.30
2022-09-13T02:45:42.715Z,20.40
2022-09-13T02:48:19.767Z,20.30
2022-09-13T02:51:13.091Z,20.10
2022-09-13T02:54:04.708Z,20.10
2022-09-13T02:56:54.077Z,19.90
2022-09-13T02:59:24.458Z,19.80
2022-09-13T03:02:04.365Z,19.80
2022-09-13T03:04:33.722Z,19.70
2022-09-13T03:07:04.681Z,19.70
2022-09-13T03:09:33.192Z,19.70
2022-09-13T03:12:22.981Z,19.60
2022-09-13T03:15:02.397Z,19.60
2022-09-13T03:17:51.903Z,19.60
2022-09-13T03:20:30.561Z,19.60
2022-09-13T03:23:26.553Z,19.40
2022-09-13T03:26:34.809Z,19.50
2022-09-13T03:29:41.358Z,19.40
2022-09-13T03:32:12.048Z,19.30
2022-09-13T03:35:08.387Z,19.50
2022-09-13T03:37:53.573Z,19.30
2022-09-13T03:40:33.454Z,19.40
2022-09-13T03:43:14.868Z,19.20
2022-09-13T03:45:51.734Z,19.40
2022-09-13T03:48:20.487Z,19.30
2022-09-13T03:50:49.936Z,19.10
2022-09-13T03:53:25.322Z,19.10
2022-09-13T03:55:53.347Z,19.20
2022-09-13T03:58:23.509Z,19.20
2022-09-13T04:00:51.805Z,19.30
2022-09-13T04:03:20.044Z,19.30
2022-09-13T04:05:47.735Z,19.30
2022-09-13T04:08:15.508Z,19.20
2022-09-13T04:10:43.194Z,19.10
2022-09-13T04:13:11.230Z,19.10
2022-09-13T04:15:38.925Z,19.10
2022-09-13T04:18:06.727Z,19.00
2022-09-13T04:20:36.061Z,19.10
2022-09-13T04:23:05.069Z,19.10
2022-09-13T04:25:32.762Z,19.20
2022-09-13T04:28:01.093Z,19.10
2022-09-13T04:30:29.673Z,19.20
2022-09-13T04:32:59.684Z,19.20
2022-09-13T04:35:27.857Z,19.20
2022-09-13T04:37:58.391Z,19.10
2022-09-13T04:40:26.220Z,19.20
2022-09-13T04:42:54.043Z,19.10
2022-09-13T04:45:22.157Z,19.10
2022-09-13T04:47:54.137Z,19.10
2022-09-13T04:50:23.305Z,19.30
2022-09-13T04:52:52.187Z,19.20
2022-09-13T04:55:19.880Z,19.20
2022-09-13T04:57:47.603Z,19.10
2022-09-13T05:00:15.570Z,19.20
2022-09-13T05:02:43.226Z,19.00
2022-09-13T05:05:11.038Z,19.00
2022-09-13T05:07:39.556Z,19.00
2022-09-13T05:10:07.809Z,19.10
2022-09-13T05:12:35.461Z,19.10
2022-09-13T05:15:03.250Z,19.10
2022-09-13T05:17:30.963Z,19.30
2022-09-13T05:19:58.742Z,19.30
2022-09-13T05:22:26.520Z,19.30
2022-09-13T05:24:54.369Z,19.40
2022-09-13T05:27:22.121Z,19.50
2022-09-13T05:29:49.802Z,19.60
2022-09-13T05:32:17.470Z,19.60
2022-09-13T05:34:45.845Z,19.40
2022-09-13T05:37:13.556Z,19.50
2022-09-13T05:40:00.670Z,19.50
2022-09-13T05:42:29.391Z,19.50
2022-09-13T05:44:57.518Z,19.50
2022-09-13T05:47:25.419Z,19.70
2022-09-13T05:50:09.967Z,19.80
2022-09-13T05:52:38.429Z,20.00
2022-09-13T05:55:06.543Z,20.10
2022-09-13T05:57:34.250Z,20.10
2022-09-13T06:00:02.165Z,20.10
2022-09-13T06:02:40.137Z,20.20
2022-09-13T06:05:12.102Z,20.30
2022-09-13T06:07:41.843Z,20.30
2022-09-13T06:10:11.125Z,20.50
2022-09-13T06:12:39.118Z,20.70
2022-09-13T06:15:07.773Z,20.70
2022-09-13T06:17:35.798Z,20.90
2022-09-13T06:20:04.567Z,20.90
2022-09-13T06:22:35.401Z,20.60
2022-09-13T06:25:03.497Z,20.70
2022-09-13T06:27:31.903Z,20.70
2022-09-13T06:29:59.870Z,20.90
2022-09-13T06:32:27.668Z,21.00
2022-09-13T06:34:55.403Z,21.10
2022-09-13T06:37:23.135Z,21.20
2022-09-13T06:39:50.957Z,21.30
2022-09-13T06:42:19.190Z,21.40
2022-09-13T06:44:48.579Z,21.40
2022-09-13T06:47:16.345Z,21.60
2022-09-13T06:49:44.283Z,21.60
2022-09-13T06:52:11.935Z,21.80
2022-09-13T06:54:39.825Z,21.80
2022-09-13T06:57:07.974Z,21.70
2022-09-13T06:59:35.870Z,22.00
2022-09-13T07:02:03.705Z,21.90
2022-09-13T07:04:32.137Z,22.00
2022-09-13T07:07:00.280Z,22.10
2022-09-13T07:09:28.033Z,22.20
2022-09-13T07:11:56.588Z,22.40
2022-09-13T07:14:27.094Z,22.40
2022-09-13T07:16:55.691Z,22.30
2022-09-13T07:19:26.693Z,22.50
2022-09-13T07:21:55.795Z,22.70
2022-09-13T07:24:24.785Z,22.70
2022-09-13T07:26:52.566Z,22.70
2022-09-13T07:29:23.881Z,22.60
2022-09-13T07:31:54.673Z,22.70
2022-09-13T07:34:24.372Z,22.70
2022-09-13T07:36:52.736Z,22.80
2022-09-13T07:39:24.443Z,23.00
2022-09-13T07:41:53.780Z,23.10
2022-09-13T07:44:21.766Z,22.90
2022-09-13T07:46:49.403Z,23.00
2022-09-13T07:49:19.156Z,23.20
2022-09-13T07:51:47.294Z,23.30
2022-09-13T07:54:18.018Z,23.20
2022-09-13T07:56:46.254Z,23.30
2022-09-13T07:59:15.937Z,23.20
2022-09-13T08:01:46.614Z,23.30
2022-09-13T08:04:21.116Z,23.30
2022-09-13T08:06:49.123Z,23.20
2022-09-13T08:09:17.747Z,23.20
2022-09-13T08:11:53.244Z,23.40
2022-09-13T08:14:22.824Z,23.40
2022-09-13T08:16:50.750Z,23.50
2022-09-13T08:19:19.624Z,23.50
2022-09-13T08:21:47.783Z,23.50
2022-09-13T08:24:19.891Z,23.60
2022-09-13T08:26:48.131Z,23.70
2022-09-13T08:29:16.101Z,23.70
2022-09-13T08:31:44.494Z,23.80
2022-09-13T08:34:14.762Z,23.90
2022-09-13T08:36:43.366Z,24.00
2022-09-13T08:39:15.126Z,24.00
2022-09-13T08:41:45.161Z,23.90
2022-09-13T08:44:26.711Z,23.90
2022-09-13T08:47:20.203Z,24.10
2022-09-13T08:49:51.815Z,24.40
2022-09-13T08:53:04.342Z,24.30
2022-09-13T08:56:03.707Z,24.30
2022-09-13T08:58:46.572Z,24.40
2022-09-13T09:01:27.115Z,24.20
2022-09-13T09:04:27.432Z,24.30
2022-09-13T09:07:12.522Z,24.50
2022-09-13T09:10:02.743Z,24.70
2022-09-13T09:12:39.205Z,24.60
2022-09-13T09:15:20.289Z,24.60
2022-09-13T09:17:53.159Z,24.60
2022-09-13T09:20:28.591Z,24.70
2022-09-13T09:22:56.614Z,24.80
2022-09-13T09:25:26.957Z,24.90
2022-09-13T09:27:55.234Z,25.00
2022-09-13T09:30:23.271Z,25.00
2022-09-13T09:33:30.955Z,24.80
2022-09-13T09:36:11.706Z,25.00
2022-09-13T09:38:42.928Z,25.10
2022-09-13T09:41:16.441Z,25.30
2022-09-13T09:43:55.753Z,25.20
2022-09-13T09:46:29.553Z,25.30
2022-09-13T09:49:27.152Z,25.40
2022-09-13T09:51:56.751Z,25.40
2022-09-13T09:54:27.185Z,25.40
2022-09-13T09:56:55.516Z,25.60
2022-09-13T09:59:31.515Z,25.50
2022-09-13T10:02:14.535Z,25.50
2022-09-13T10:04:42.635Z,25.60
2022-09-13T10:07:27.184Z,25.70
2022-09-13T10:10:08.729Z,25.90
2022-09-13T10:12:38.444Z,26.00
2022-09-13T10:15:34.825Z,25.90
2022-09-13T10:18:03.381Z,25.90
2022-09-13T10:20:32.468Z,25.80
2022-09-13T10:23:15.626Z,26.00
2022-09-13T10:26:03.020Z,26.10
2022-09-13T10:28:35.382Z,26.20
2022-09-13T10:31:11.896Z,26.40
2022-09-13T10:33:50.487Z,26.50
2022-09-13T10:36:52.424Z,26.40
2022-09-13T10:39:24.184Z,26.50
2022-09-13T10:42:05.671Z,26.70
2022-09-13T10:44:51.988Z,26.70
2022-09-13T10:47:25.115Z,26.90
2022-09-13T10:49:55.380Z,27.00
2022-09-13T10:52:31.803Z,26.90
2022-09-13T10:55:18.667Z,26.90
2022-09-13T10:57:51.992Z,27.20
2022-09-13T11:00:40.128Z,27.30
2022-09-13T11:03:45.530Z,27.50
2022-09-13T11:06:28.419Z,27.60
2022-09-13T11:09:02.866Z,27.70
2022-09-13T11:11:42.443Z,27.40
2022-09-13T11:14:31.382Z,27.30
2022-09-13T11:17:15.802Z,27.40
2022-09-13T11:20:05.809Z,27.50
2022-09-13T11:22:59.683Z,27.70
2022-09-13T11:25:46.195Z,27.60
2022-09-13T11:28:42.753Z,27.80
2022-09-13T11:31:36.533Z,27.70
2022-09-13T11:34:44.975Z,27.90
2022-09-13T11:38:00.548Z,28.30
2022-09-13T11:40:42.935Z,28.20
2022-09-13T11:43:38.593Z,28.30
2022-09-13T11:46:18.472Z,28.30
2022-09-13T11:49:00.301Z,28.50
2022-09-13T11:51:43.082Z,28.60
2022-09-13T11:54:24.345Z,28.50
2022-09-13T11:57:01.929Z,28.70
2022-09-13T11:59:54.774Z,28.70
2022-09-13T12:02:34.478Z,28.80
2022-09-13T12:05:23.925Z,28.90
2022-09-13T12:08:13.448Z,29.00
2022-09-13T12:10:49.572Z,29.00
2022-09-13T12:13:25.727Z,28.80
2022-09-13T12:16:00.601Z,28.80
2022-09-13T12:18:50.503Z,29.10
2022-09-13T12:21:24.185Z,29.30
2022-09-13T12:24:05.238Z,29.10
2022-09-13T12:26:42.289Z,28.90
2022-09-13T12:29:27.263Z,28.80
2022-09-13T12:32:02.641Z,29.20
2022-09-13T12:34:52.547Z,29.40
2022-09-13T12:37:40.670Z,29.70
2022-09-13T12:40:31.370Z,29.80
2022-09-13T12:43:05.165Z,29.60
2022-09-13T12:46:00.428Z,29.50
2022-09-13T12:48:56.217Z,29.60
2022-09-13T12:51:58.717Z,29.80
2022-09-13T12:54:44.989Z,30.10
2022-09-13T12:57:12.703Z,29.80
2022-09-13T13:00:01.348Z,29.70
2022-09-13T13:02:35.233Z,29.80
2022-09-13T13:05:18.617Z,29.80
2022-09-13T13:07:57.059Z,29.70
2022-09-13T13:10:28.136Z,29.60
2022-09-13T13:12:55.898Z,29.80
2022-09-13T13:15:26.764Z,29.80
2022-09-13T13:17:56.141Z,29.80
2022-09-13T13:20:46.151Z,29.60
2022-09-13T13:23:35.386Z,29.50
2022-09-13T13:26:20.566Z,29.60
2022-09-13T13:28:53.524Z,29.60
2022-09-13T13:31:30.050Z,29.70
2022-09-13T13:34:08.574Z,29.90
2022-09-13T13:36:42.344Z,30.10
2022-09-13T13:39:25.335Z,29.80
2022-09-13T13:41:57.826Z,29.60
2022-09-13T13:44:25.690Z,29.50
2022-09-13T13:47:08.728Z,29.50
2022-09-13T13:49:39.770Z,29.90
2022-09-13T13:52:10.495Z,29.80
2022-09-13T13:54:50.773Z,29.70
2022-09-13T13:57:41.450Z,29.90
2022-09-13T14:00:12.475Z,30.20
2022-09-13T14:02:51.179Z,29.90
2022-09-13T14:05:46.325Z,29.80
2022-09-13T14:08:26.698Z,29.70
2022-09-13T14:11:03.393Z,29.60
2022-09-13T14:14:01.376Z,29.60
2022-09-13T14:16:51.132Z,29.60
2022-09-13T14:19:31.597Z,29.60
2022-09-13T14:22:05.620Z,29.60
2022-09-13T14:24:38.853Z,29.20
2022-09-13T14:27:09.538Z,29.40
2022-09-13T14:29:37.722Z,29.60
2022-09-13T14:32:15.552Z,29.70
2022-09-13T14:34:56.113Z,29.90
2022-09-13T14:37:31.081Z,29.80
2022-09-13T14:40:28.989Z,29.60
2022-09-13T14:42:56.817Z,29.40
2022-09-13T14:45:37.324Z,29.50
2022-09-13T14:48:23.513Z,29.40
2022-09-13T14:51:05.636Z,29.50
2022-09-13T14:53:35.217Z,29.60
2022-09-13T14:56:04.573Z,29.50
2022-09-13T14:58:46.413Z,29.40
2022-09-13T15:01:20.892Z,29.50
2022-09-13T15:03:51.832Z,29.40
2022-09-13T15:06:40.439Z,29.20
2022-09-13T15:09:11.639Z,29.20
2022-09-13T15:12:01.261Z,29.20
2022-09-13T15:14:39.740Z,29.20
2022-09-13T15:17:12.859Z,29.20
2022-09-13T15:19:42.712Z,29.20
2022-09-13T15:22:23.886Z,29.20
2022-09-13T15:24:57.252Z,29.10
2022-09-13T15:27:30.885Z,29.10
2022-09-13T15:30:03.995Z,28.90
2022-09-13T15:32:35.557Z,28.90
2022-09-13T15:35:03.462Z,28.70
2022-09-13T15:37:37.579Z,28.70
2022-09-13T15:40:14.537Z,28.70
2022-09-13T15:42:46.479Z,28.70
2022-09-13T15:45:14.449Z,28.80
2022-09-13T15:47:46.054Z,28.70
2022-09-13T15:50:41.919Z,28.70
2022-09-13T15:53:12.795Z,28.50
2022-09-13T15:55:40.598Z,28.40
2022-09-13T15:58:10.330Z,28.40
2022-09-13T16:00:38.062Z,28.30
2022-09-13T16:03:05.845Z,28.30
2022-09-13T16:05:33.629Z,28.20
2022-09-13T16:08:01.268Z,28.20
2022-09-13T16:10:29.194Z,28.10
2022-09-13T16:12:56.791Z,28.10
2022-09-13T16:15:24.618Z,28.10
2022-09-13T16:17:52.620Z,28.00
2022-09-13T16:20:20.474Z,28.00
2022-09-13T16:22:48.365Z,27.80
2022-09-13T16:25:16.647Z,27.80
2022-09-13T16:27:45.471Z,27.80
2022-09-13T16:30:18.739Z,27.80
2022-09-13T16:32:46.629Z,27.80
2022-09-13T16:35:17.192Z,27.60
2022-09-13T16:37:44.994Z,27.50
2022-09-13T16:40:13.642Z,27.50
2022-09-13T16:42:41.510Z,27.40
2022-09-13T16:45:10.477Z,27.20
2022-09-13T16:47:38.598Z,27.10
2022-09-13T16:50:07.075Z,26.90
2022-09-13T16:52:35.956Z,26.90
2022-09-13T16:55:05.241Z,26.90
2022-09-13T16:57:33.245Z,26.80
2022-09-13T17:00:01.344Z,26.80
2022-09-13T17:02:29.869Z,26.70
2022-09-13T17:04:57.946Z,26.70
2022-09-13T17:07:25.915Z,26.80
2022-09-13T17:09:53.806Z,26.70
2022-09-13T17:12:21.579Z,26.80
2022-09-13T17:14:50.812Z,26.90
2022-09-13T17:17:18.731Z,26.70
2022-09-13T17:19:47.142Z,26.70
2022-09-13T17:22:15.162Z,26.80
2022-09-13T17:24:43.046Z,26.70
2022-09-13T17:27:11.338Z,26.50
2022-09-13T17:29:39.010Z,26.40
2022-09-13T17:32:07.633Z,26.30
2022-09-13T17:34:35.381Z,26.20
2022-09-13T17:37:03.859Z,26.10
2022-09-13T17:39:31.793Z,26.00
2022-09-13T17:41:59.945Z,26.00
2022-09-13T17:44:27.756Z,25.90
2022-09-13T17:46:55.647Z,26.00
2022-09-13T17:49:24.596Z,25.80
2022-09-13T17:51:52.273Z,25.70
2022-09-13T17:54:20.123Z,25.70
2022-09-13T17:56:47.887Z,25.60
2022-09-13T17:59:20.500Z,25.60
2022-09-13T18:01:51.145Z,25.50
2022-09-13T18:04:21.691Z,25.50
2022-09-13T18:06:51.832Z,25.50
2022-09-13T18:09:20.584Z,25.60
2022-09-13T18:11:48.901Z,25.60
2022-09-13T18:14:18.552Z,25.60
2022-09-13T18:16:46.983Z,25.70
2022-09-13T18:19:14.909Z,25.60
2022-09-13T18:21:42.589Z,25.60
2022-09-13T18:24:10.393Z,25.50
2022-09-13T18:26:38.640Z,25.70
2022-09-13T18:29:11.087Z,25.60
2022-09-13T18:31:41.134Z,25.50
2022-09-13T18:34:12.748Z,25.60
2022-09-13T18:36:41.547Z,25.40
2022-09-13T18:39:15.890Z,25.20
2022-09-13T18:41:45.451Z,25.30
2022-09-13T18:44:14.508Z,25.30
2022-09-13T18:46:43.286Z,25.30
2022-09-13T18:49:11.502Z,25.50
2022-09-13T18:51:42.018Z,25.50
2022-09-13T18:54:14.860Z,25.40
2022-09-13T18:56:42.841Z,25.30
2022-09-13T18:59:11.246Z,25.30
2022-09-13T19:01:41.748Z,25.20
2022-09-13T19:04:16.227Z,25.20
2022-09-13T19:06:48.991Z,25.20
2022-09-13T19:09:20.224Z,25.10
2022-09-13T19:11:50.074Z,25.10
2022-09-13T19:14:21.898Z,25.00
2022-09-13T19:16:50.281Z,25.00
2022-09-13T19:19:18.461Z,24.90
2022-09-13T19:21:46.358Z,25.00
2022-09-13T19:24:18.833Z,25.00
2022-09-13T19:26:51.069Z,24.90
2022-09-13T19:29:22.000Z,24.80
2022-09-13T19:31:52.282Z,24.70
2022-09-13T19:34:21.871Z,24.80
2022-09-13T19:36:52.709Z,24.60
2022-09-13T19:39:20.463Z,24.50
2022-09-13T19:41:48.306Z,24.30
2022-09-13T19:44:16.235Z,24.30
2022-09-13T19:46:44.127Z,24.30
2022-09-13T19:49:17.033Z,24.10
2022-09-13T19:51:50.216Z,24.00
2022-09-13T19:54:20.690Z,23.80
2022-09-13T19:56:48.685Z,23.60
2022-09-13T19:59:19.909Z,23.60
2022-09-13T20:01:48.401Z,23.50
2022-09-13T20:04:18.366Z,23.50
2022-09-13T20:06:50.944Z,23.60
2022-09-13T20:09:20.400Z,23.70
2022-09-13T20:11:48.999Z,23.70
2022-09-13T20:14:19.373Z,23.60
2022-09-13T20:16:47.552Z,23.60
2022-09-13T20:22:10.408Z,23.80
2022-09-13T20:24:38.158Z,23.70
2022-09-13T20:27:06.006Z,23.60
2022-09-13T20:29:33.665Z,23.80
2022-09-13T20:32:02.654Z,23.80
2022-09-13T20:34:31.233Z,23.80
2022-09-13T20:36:58.883Z,23.90
2022-09-13T20:39:26.663Z,23.90
2022-09-13T20:41:54.787Z,23.90
2022-09-13T20:44:22.485Z,23.90
2022-09-13T20:46:50.338Z,24.00
2022-09-13T20:49:18.021Z,23.90
2022-09-13T20:51:46.733Z,23.90
2022-09-13T20:54:14.469Z,23.90
2022-09-13T20:56:42.155Z,23.80
2022-09-13T20:59:10.385Z,23.90
2022-09-13T21:01:38.525Z,23.90
2022-09-13T21:04:06.465Z,23.80
2022-09-13T21:06:59.575Z,23.80
2022-09-13T21:09:27.662Z,23.80
2022-09-13T21:11:55.690Z,23.80
2022-09-13T21:14:24.077Z,23.70
2022-09-13T21:16:51.767Z,23.80
2022-09-13T21:19:19.709Z,23.60
2022-09-13T21:21:47.604Z,23.60
2022-09-13T21:24:15.418Z,23.50
2022-09-13T21:26:43.298Z,23.50
2022-09-13T21:29:12.026Z,23.40
2022-09-13T21:31:41.921Z,23.40
2022-09-13T21:34:16.236Z,23.30
2022-09-13T21:36:45.529Z,23.40
2022-09-13T21:39:13.781Z,23.40
2022-09-13T21:41:42.443Z,23.60
2022-09-13T21:44:10.687Z,23.60
2022-09-13T21:46:39.901Z,23.70
2022-09-13T21:49:13.051Z,23.70
2022-09-13T21:51:44.112Z,23.60
2022-09-13T21:54:14.339Z,23.60
2022-09-13T21:56:44.663Z,23.50
2022-09-13T21:59:17.321Z,23.50
2022-09-13T22:01:48.784Z,23.50
2022-09-13T22:04:19.267Z,23.30
2022-09-13T22:06:51.682Z,23.30
2022-09-13T22:09:21.403Z,23.20
2022-09-13T22:11:49.823Z,23.20
2022-09-13T22:14:20.185Z,23.20
2022-09-13T22:16:48.653Z,23.20
2022-09-13T22:19:20.825Z,23.30
2022-09-13T22:21:50.443Z,23.20
2022-09-13T22:24:20.920Z,23.10
2022-09-13T22:26:49.952Z,23.20
2022-09-13T22:29:18.340Z,23.10
2022-09-13T22:31:47.941Z,23.10
2022-09-13T22:34:18.872Z,23.10
2022-09-13T22:36:47.122Z,23.10
2022-09-13T22:39:16.762Z,23.20
2022-09-13T22:41:45.390Z,23.20
2022-09-13T22:44:13.636Z,23.10
2022-09-13T22:46:43.612Z,23.10
2022-09-13T22:49:16.377Z,23.10
2022-09-13T22:51:45.527Z,23.20
2022-09-13T22:54:15.107Z,23.20
2022-09-13T22:56:43.189Z,23.20
2022-09-13T22:59:16.780Z,23.30
2022-09-13T23:01:45.190Z,23.30
2022-09-13T23:04:13.830Z,23.20
2022-09-13T23:06:44.068Z,23.00
2022-09-13T23:09:14.749Z,22.80
2022-09-13T23:11:43.257Z,22.90
2022-09-13T23:14:14.741Z,22.70
2022-09-13T23:16:50.646Z,22.70
2022-09-13T23:19:20.833Z,22.90
2022-09-13T23:21:48.829Z,22.90
2022-09-13T23:24:18.259Z,23.00
2022-09-13T23:26:46.433Z,22.90
2022-09-13T23:29:17.334Z,22.90
2022-09-13T23:31:47.407Z,22.90
2022-09-13T23:34:16.336Z,22.90
2022-09-13T23:36:44.806Z,22.80
2022-09-13T23:39:16.862Z,22.90
2022-09-13T23:41:46.186Z,22.90
2022-09-13T23:44:14.376Z,22.90
2022-09-13T23:46:42.196Z,22.90
2022-09-13T23:49:10.067Z,22.90
2022-09-13T23:51:37.840Z,22.70
2022-09-13T23:54:06.508Z,22.70
2022-09-13T23:56:35.694Z,22.70
2022-09-13T23:59:04.400Z,22.60
